sensor_id;sensor_type;location;lat;lon;timestamp;pressure;altitude;pressure_sealevel;temperature;humidity
66762;BME280;53672;48.176;16.338;2024-02-21T00:03:46;100164.56;;;7.55;62.40
66762;BME280;53672;48.176;16.338;2024-02-21T00:08:49;100157.94;;;7.58;62.39
66762;BME280;53672;48.176;16.338;2024-02-21T00:13:51;100167.69;;;7.60;61.98
66762;BME280;53672;48.176;16.338;2024-02-21T00:18:52;100161.13;;;7.53;61.66
66762;BME280;53672;48.176;16.338;2024-02-21T00:23:55;100158.19;;;7.64;61.43
66762;BME280;53672;48.176;16.338;2024-02-21T00:28:57;100154.38;;;7.57;62.01
66762;BME280;53672;48.176;16.338;2024-02-21T00:33:58;100154.50;;;7.56;61.27
66762;BME280;53672;48.176;16.338;2024-02-21T00:39:02;100147.59;;;7.61;60.81
66762;BME280;53672;48.176;16.338;2024-02-21T00:44:03;100143.97;;;7.61;61.42
66762;BME280;53672;48.176;16.338;2024-02-21T00:49:06;100143.53;;;7.65;60.62
66762;BME280;53672;48.176;16.338;2024-02-21T00:54:09;100123.88;;;7.62;60.25
66762;BME280;53672;48.176;16.338;2024-02-21T00:59:11;100128.88;;;7.66;60.19
66762;BME280;53672;48.176;16.338;2024-02-21T01:04:12;100113.78;;;7.62;59.73
66762;BME280;53672;48.176;16.338;2024-02-21T01:09:15;100119.56;;;7.59;60.36
66762;BME280;53672;48.176;16.338;2024-02-21T01:14:17;100107.59;;;7.60;59.75
66762;BME280;53672;48.176;16.338;2024-02-21T01:19:18;100112.53;;;7.57;59.84
66762;BME280;53672;48.176;16.338;2024-02-21T01:24:21;100104.34;;;7.57;60.11
66762;BME280;53672;48.176;16.338;2024-02-21T01:29:24;100102.13;;;7.60;59.79
66762;BME280;53672;48.176;16.338;2024-02-21T01:34:26;100098.41;;;7.61;60.32
66762;BME280;53672;48.176;16.338;2024-02-21T01:39:28;100093.06;;;7.60;60.19
66762;BME280;53672;48.176;16.338;2024-02-21T01:44:31;100093.41;;;7.57;60.15
66762;BME280;53672;48.176;16.338;2024-02-21T01:49:33;100094.56;;;7.54;60.53
66762;BME280;53672;48.176;16.338;2024-02-21T01:54:36;100080.09;;;7.44;60.65
66762;BME280;53672;48.176;16.338;2024-02-21T01:59:38;100072.81;;;7.35;60.92
66762;BME280;53672;48.176;16.338;2024-02-21T02:04:40;100070.66;;;7.38;60.37
66762;BME280;53672;48.176;16.338;2024-02-21T02:09:43;100060.56;;;7.39;60.76
66762;BME280;53672;48.176;16.338;2024-02-21T02:14:44;100057.84;;;7.39;60.15
66762;BME280;53672;48.176;16.338;2024-02-21T02:19:46;100055.09;;;7.39;61.24
66762;BME280;53672;48.176;16.338;2024-02-21T02:24:49;100061.03;;;7.34;60.64
66762;BME280;53672;48.176;16.338;2024-02-21T02:29:50;100052.59;;;7.28;60.96
66762;BME280;53672;48.176;16.338;2024-02-21T02:34:53;100057.03;;;7.29;61.11
66762;BME280;53672;48.176;16.338;2024-02-21T02:39:57;100051.41;;;7.30;60.99
66762;BME280;53672;48.176;16.338;2024-02-21T02:44:58;100042.53;;;7.28;60.71
66762;BME280;53672;48.176;16.338;2024-02-21T02:50:00;100036.38;;;7.26;60.72
66762;BME280;53672;48.176;16.338;2024-02-21T02:55:03;100044.25;;;7.29;60.33
66762;BME280;53672;48.176;16.338;2024-02-21T03:00:06;100028.31;;;7.25;60.63
66762;BME280;53672;48.176;16.338;2024-02-21T03:05:12;100029.44;;;7.32;60.35
66762;BME280;53672;48.176;16.338;2024-02-21T03:10:15;100032.56;;;7.37;59.64
66762;BME280;53672;48.176;16.338;2024-02-21T03:15:17;100028.66;;;7.39;59.33
66762;BME280;53672;48.176;16.338;2024-02-21T03:20:19;100024.06;;;7.40;59.18
66762;BME280;53672;48.176;16.338;2024-02-21T03:25:22;100028.53;;;7.41;59.72
66762;BME280;53672;48.176;16.338;2024-02-21T03:30:23;100032.56;;;7.37;60.01
66762;BME280;53672;48.176;16.338;2024-02-21T03:35:25;100034.81;;;7.41;59.65
66762;BME280;53672;48.176;16.338;2024-02-21T03:40:29;100040.97;;;7.43;59.52
66762;BME280;53672;48.176;16.338;2024-02-21T03:45:30;100039.59;;;7.39;60.70
66762;BME280;53672;48.176;16.338;2024-02-21T03:50:32;100043.09;;;7.32;60.85
66762;BME280;53672;48.176;16.338;2024-02-21T03:55:35;100046.81;;;7.31;61.25
66762;BME280;53672;48.176;16.338;2024-02-21T04:00:36;100033.03;;;7.23;61.39
66762;BME280;53672;48.176;16.338;2024-02-21T04:05:38;100037.53;;;7.14;61.74
66762;BME280;53672;48.176;16.338;2024-02-21T04:10:41;100035.72;;;7.05;62.38
66762;BME280;53672;48.176;16.338;2024-02-21T04:15:42;100033.03;;;6.96;62.17
66762;BME280;53672;48.176;16.338;2024-02-21T04:20:44;100040.41;;;6.86;62.65
66762;BME280;53672;48.176;16.338;2024-02-21T04:25:47;100037.97;;;6.82;62.58
66762;BME280;53672;48.176;16.338;2024-02-21T04:30:48;100032.09;;;6.77;62.64
66762;BME280;53672;48.176;16.338;2024-02-21T04:35:50;100029.78;;;6.82;62.60
66762;BME280;53672;48.176;16.338;2024-02-21T04:40:53;100033.19;;;6.94;62.04
66762;BME280;53672;48.176;16.338;2024-02-21T04:45:55;100025.69;;;6.96;61.60
66762;BME280;53672;48.176;16.338;2024-02-21T04:50:56;100022.53;;;7.01;61.97
66762;BME280;53672;48.176;16.338;2024-02-21T04:55:59;100015.91;;;7.03;61.27
66762;BME280;53672;48.176;16.338;2024-02-21T05:01:01;100017.72;;;7.12;60.46
66762;BME280;53672;48.176;16.338;2024-02-21T05:06:03;100005.19;;;7.19;60.71
66762;BME280;53672;48.176;16.338;2024-02-21T05:11:06;100008.06;;;7.18;59.91
66762;BME280;53672;48.176;16.338;2024-02-21T05:16:07;100019.38;;;7.23;59.96
66762;BME280;53672;48.176;16.338;2024-02-21T05:21:09;100010.47;;;7.21;59.96
66762;BME280;53672;48.176;16.338;2024-02-21T05:26:20;99996.84;;;7.21;60.81
66762;BME280;53672;48.176;16.338;2024-02-21T05:31:21;99993.41;;;7.19;60.48
66762;BME280;53672;48.176;16.338;2024-02-21T05:36:23;99994.09;;;7.21;60.07
66762;BME280;53672;48.176;16.338;2024-02-21T05:41:26;99989.94;;;7.26;59.27
66762;BME280;53672;48.176;16.338;2024-02-21T05:46:27;99993.94;;;7.32;58.76
66762;BME280;53672;48.176;16.338;2024-02-21T05:51:32;99985.03;;;7.30;59.09
66762;BME280;53672;48.176;16.338;2024-02-21T05:56:35;99988.56;;;7.40;57.54
66762;BME280;53672;48.176;16.338;2024-02-21T06:01:36;99993.72;;;7.43;57.71
66762;BME280;53672;48.176;16.338;2024-02-21T06:06:38;99987.56;;;7.41;57.26
66762;BME280;53672;48.176;16.338;2024-02-21T06:11:41;99980.59;;;7.46;57.40
66762;BME280;53672;48.176;16.338;2024-02-21T06:16:43;99980.38;;;7.40;57.38
66762;BME280;53672;48.176;16.338;2024-02-21T06:21:45;99978.97;;;7.36;57.52
66762;BME280;53672;48.176;16.338;2024-02-21T06:26:47;99979.59;;;7.47;57.59
66762;BME280;53672;48.176;16.338;2024-02-21T06:31:49;99971.34;;;7.57;56.55
66762;BME280;53672;48.176;16.338;2024-02-21T06:36:51;99978.50;;;7.58;57.07
66762;BME280;53672;48.176;16.338;2024-02-21T06:41:54;99981.69;;;7.71;55.80
66762;BME280;53672;48.176;16.338;2024-02-21T06:46:55;99974.06;;;7.75;56.32
66762;BME280;53672;48.176;16.338;2024-02-21T06:51:58;99976.88;;;7.65;55.88
66762;BME280;53672;48.176;16.338;2024-02-21T06:57:01;99978.34;;;7.77;56.17
66762;BME280;53672;48.176;16.338;2024-02-21T07:02:03;99970.13;;;7.95;55.01
66762;BME280;53672;48.176;16.338;2024-02-21T07:07:05;99972.31;;;8.09;54.58
66762;BME280;53672;48.176;16.338;2024-02-21T07:12:08;99966.84;;;8.09;54.60
66762;BME280;53672;48.176;16.338;2024-02-21T07:17:09;99970.44;;;8.09;54.19
66762;BME280;53672;48.176;16.338;2024-02-21T07:22:11;99971.38;;;8.00;54.88
66762;BME280;53672;48.176;16.338;2024-02-21T07:27:15;99965.31;;;8.14;53.90
66762;BME280;53672;48.176;16.338;2024-02-21T07:32:16;99957.41;;;8.29;53.57
66762;BME280;53672;48.176;16.338;2024-02-21T07:37:18;99948.88;;;8.58;53.17
66762;BME280;53672;48.176;16.338;2024-02-21T07:42:21;99944.19;;;8.84;52.64
66762;BME280;53672;48.176;16.338;2024-02-21T07:47:23;99942.31;;;9.18;50.99
66762;BME280;53672;48.176;16.338;2024-02-21T07:52:24;99943.72;;;9.38;50.99
66762;BME280;53672;48.176;16.338;2024-02-21T07:57:27;99939.81;;;9.57;50.27
66762;BME280;53672;48.176;16.338;2024-02-21T08:02:29;99939.00;;;9.97;48.98
66762;BME280;53672;48.176;16.338;2024-02-21T08:07:30;99938.19;;;10.75;46.61
66762;BME280;53672;48.176;16.338;2024-02-21T08:12:34;99944.63;;;10.98;46.13
66762;BME280;53672;48.176;16.338;2024-02-21T08:17:35;99937.69;;;11.11;44.96
66762;BME280;53672;48.176;16.338;2024-02-21T08:22:37;99925.59;;;11.81;42.76
66762;BME280;53672;48.176;16.338;2024-02-21T08:27:40;99925.88;;;13.04;41.04
66762;BME280;53672;48.176;16.338;2024-02-21T08:32:41;99918.53;;;14.81;36.79
66762;BME280;53672;48.176;16.338;2024-02-21T08:37:43;99917.31;;;16.04;34.03
66762;BME280;53672;48.176;16.338;2024-02-21T08:42:48;99911.19;;;17.25;31.01
66762;BME280;53672;48.176;16.338;2024-02-21T08:47:50;99904.13;;;17.29;31.24
66762;BME280;53672;48.176;16.338;2024-02-21T08:52:52;99901.66;;;17.65;29.70
66762;BME280;53672;48.176;16.338;2024-02-21T08:57:55;99894.06;;;16.71;31.31
66762;BME280;53672;48.176;16.338;2024-02-21T09:02:57;99888.56;;;15.32;34.73
66762;BME280;53672;48.176;16.338;2024-02-21T09:07:58;99891.97;;;17.74;30.36
66762;BME280;53672;48.176;16.338;2024-02-21T09:13:01;99881.00;;;23.00;24.36
66762;BME280;53672;48.176;16.338;2024-02-21T09:18:04;99880.94;;;24.93;19.88
66762;BME280;53672;48.176;16.338;2024-02-21T09:23:05;99860.78;;;25.07;19.60
66762;BME280;53672;48.176;16.338;2024-02-21T09:28:08;99861.56;;;22.39;22.96
66762;BME280;53672;48.176;16.338;2024-02-21T09:33:10;99869.25;;;20.26;26.10
66762;BME280;53672;48.176;16.338;2024-02-21T09:38:12;99863.88;;;19.24;28.25
66762;BME280;53672;48.176;16.338;2024-02-21T09:43:17;99864.00;;;18.93;28.10
66762;BME280;53672;48.176;16.338;2024-02-21T09:48:34;99863.28;;;18.61;28.94
66762;BME280;53672;48.176;16.338;2024-02-21T09:53:42;99846.00;;;18.95;30.15
66762;BME280;53672;48.176;16.338;2024-02-21T09:58:46;99848.53;;;24.44;23.10
66762;BME280;53672;48.176;16.338;2024-02-21T10:03:48;99842.53;;;28.74;18.58
66762;BME280;53672;48.176;16.338;2024-02-21T10:08:52;99822.59;;;32.13;14.08
66762;BME280;53672;48.176;16.338;2024-02-21T10:14:04;99818.75;;;31.27;14.40
66762;BME280;53672;48.176;16.338;2024-02-21T10:19:06;99816.50;;;26.16;17.43
66762;BME280;53672;48.176;16.338;2024-02-21T10:24:07;99824.78;;;22.85;21.55
66762;BME280;53672;48.176;16.338;2024-02-21T10:29:11;99818.47;;;22.23;23.67
66762;BME280;53672;48.176;16.338;2024-02-21T10:34:16;99818.34;;;20.65;24.17
66762;BME280;53672;48.176;16.338;2024-02-21T10:39:19;99812.38;;;19.63;26.57
66762;BME280;53672;48.176;16.338;2024-02-21T10:44:22;99794.78;;;17.99;28.28
66762;BME280;53672;48.176;16.338;2024-02-21T10:49:26;99787.44;;;17.55;29.35
66762;BME280;53672;48.176;16.338;2024-02-21T10:54:40;99789.28;;;18.78;26.98
66762;BME280;53672;48.176;16.338;2024-02-21T10:59:47;99796.03;;;17.78;29.46
66762;BME280;53672;48.176;16.338;2024-02-21T11:04:50;99787.22;;;17.19;29.67
66762;BME280;53672;48.176;16.338;2024-02-21T11:09:54;99777.84;;;16.62;30.92
66762;BME280;53672;48.176;16.338;2024-02-21T11:15:05;99767.13;;;15.96;31.89
66762;BME280;53672;48.176;16.338;2024-02-21T11:20:13;99769.78;;;14.97;34.40
66762;BME280;53672;48.176;16.338;2024-02-21T11:25:21;99762.22;;;14.65;36.22
66762;BME280;53672;48.176;16.338;2024-02-21T11:30:29;99763.63;;;14.20;35.53
66762;BME280;53672;48.176;16.338;2024-02-21T11:35:32;99747.75;;;13.95;35.87
66762;BME280;53672;48.176;16.338;2024-02-21T11:40:34;99741.22;;;13.74;36.00
66762;BME280;53672;48.176;16.338;2024-02-21T11:45:37;99725.88;;;13.65;36.75
66762;BME280;53672;48.176;16.338;2024-02-21T11:50:39;99720.31;;;13.87;35.83
66762;BME280;53672;48.176;16.338;2024-02-21T11:55:41;99711.16;;;14.20;34.76
66762;BME280;53672;48.176;16.338;2024-02-21T12:00:44;99697.84;;;14.30;34.58
66762;BME280;53672;48.176;16.338;2024-02-21T12:05:46;99711.16;;;14.61;36.52
66762;BME280;53672;48.176;16.338;2024-02-21T12:10:48;99695.63;;;14.53;34.50
66762;BME280;53672;48.176;16.338;2024-02-21T12:15:53;99684.56;;;14.13;34.55
66762;BME280;53672;48.176;16.338;2024-02-21T12:20:54;99677.53;;;13.69;35.20
66762;BME280;53672;48.176;16.338;2024-02-21T12:25:56;99676.19;;;13.31;36.04
66762;BME280;53672;48.176;16.338;2024-02-21T12:30:59;99674.28;;;13.32;36.04
66762;BME280;53672;48.176;16.338;2024-02-21T12:36:00;99674.59;;;13.22;35.57
66762;BME280;53672;48.176;16.338;2024-02-21T12:41:03;99672.28;;;13.26;36.73
66762;BME280;53672;48.176;16.338;2024-02-21T12:46:06;99670.28;;;13.13;36.44
66762;BME280;53672;48.176;16.338;2024-02-21T12:51:08;99657.75;;;13.10;36.91
66762;BME280;53672;48.176;16.338;2024-02-21T12:56:09;99648.94;;;13.00;36.89
66762;BME280;53672;48.176;16.338;2024-02-21T13:01:12;99641.78;;;13.27;36.26
66762;BME280;53672;48.176;16.338;2024-02-21T13:06:14;99630.59;;;13.35;36.18
66762;BME280;53672;48.176;16.338;2024-02-21T13:11:16;99624.97;;;13.43;36.05
66762;BME280;53672;48.176;16.338;2024-02-21T13:16:19;99610.63;;;13.61;35.50
66762;BME280;53672;48.176;16.338;2024-02-21T13:21:21;99602.94;;;13.91;35.36
66762;BME280;53672;48.176;16.338;2024-02-21T13:26:22;99595.75;;;14.50;33.92
66762;BME280;53672;48.176;16.338;2024-02-21T13:31:25;99572.81;;;14.95;32.83
66762;BME280;53672;48.176;16.338;2024-02-21T13:36:27;99576.88;;;15.12;32.52
66762;BME280;53672;48.176;16.338;2024-02-21T13:41:28;99565.97;;;15.44;32.64
66762;BME280;53672;48.176;16.338;2024-02-21T13:46:32;99560.66;;;15.42;31.80
66762;BME280;53672;48.176;16.338;2024-02-21T13:51:34;99561.53;;;15.23;32.00
66762;BME280;53672;48.176;16.338;2024-02-21T13:56:36;99547.44;;;15.70;34.90
66762;BME280;53672;48.176;16.338;2024-02-21T14:01:39;99536.34;;;15.70;32.26
66762;BME280;53672;48.176;16.338;2024-02-21T14:06:40;99529.06;;;15.76;32.07
66762;BME280;53672;48.176;16.338;2024-02-21T14:11:43;99519.53;;;15.72;31.42
66762;BME280;53672;48.176;16.338;2024-02-21T14:16:47;99510.31;;;15.84;33.66
66762;BME280;53672;48.176;16.338;2024-02-21T14:21:49;99508.03;;;15.75;32.99
66762;BME280;53672;48.176;16.338;2024-02-21T14:26:50;99503.97;;;15.71;33.15
66762;BME280;53672;48.176;16.338;2024-02-21T14:31:53;99499.81;;;15.36;32.18
66762;BME280;53672;48.176;16.338;2024-02-21T14:36:55;99485.63;;;15.12;32.11
66762;BME280;53672;48.176;16.338;2024-02-21T14:41:56;99479.06;;;14.87;33.01
66762;BME280;53672;48.176;16.338;2024-02-21T14:46:59;99468.47;;;14.71;33.26
66762;BME280;53672;48.176;16.338;2024-02-21T14:52:01;99469.72;;;14.69;33.41
66762;BME280;53672;48.176;16.338;2024-02-21T14:57:03;99464.63;;;14.39;33.54
66762;BME280;53672;48.176;16.338;2024-02-21T15:02:06;99458.22;;;14.26;35.29
66762;BME280;53672;48.176;16.338;2024-02-21T15:07:09;99469.53;;;13.57;36.04
66762;BME280;53672;48.176;16.338;2024-02-21T15:12:11;99468.25;;;12.85;37.95
66762;BME280;53672;48.176;16.338;2024-02-21T15:17:13;99489.06;;;12.38;39.76
66762;BME280;53672;48.176;16.338;2024-02-21T15:22:15;99473.34;;;12.32;39.20
66762;BME280;53672;48.176;16.338;2024-02-21T15:27:18;99476.88;;;12.48;39.00
66762;BME280;53672;48.176;16.338;2024-02-21T15:32:21;99467.13;;;12.45;39.54
66762;BME280;53672;48.176;16.338;2024-02-21T15:37:22;99465.75;;;12.34;39.59
66762;BME280;53672;48.176;16.338;2024-02-21T15:42:25;99471.03;;;12.08;40.23
66762;BME280;53672;48.176;16.338;2024-02-21T15:47:28;99464.16;;;12.04;40.70
66762;BME280;53672;48.176;16.338;2024-02-21T15:52:30;99462.19;;;11.77;41.82
66762;BME280;53672;48.176;16.338;2024-02-21T15:57:31;99452.63;;;11.73;43.97
66762;BME280;53672;48.176;16.338;2024-02-21T16:02:34;99444.19;;;11.24;42.65
66762;BME280;53672;48.176;16.338;2024-02-21T16:07:36;99440.88;;;11.29;42.96
66762;BME280;53672;48.176;16.338;2024-02-21T16:12:38;99439.78;;;11.09;43.50
66762;BME280;53672;48.176;16.338;2024-02-21T16:17:42;99438.66;;;10.88;44.46
66762;BME280;53672;48.176;16.338;2024-02-21T16:22:44;99434.09;;;10.66;44.53
66762;BME280;53672;48.176;16.338;2024-02-21T16:27:46;99436.91;;;10.58;44.91
66762;BME280;53672;48.176;16.338;2024-02-21T16:32:48;99444.75;;;10.47;45.51
66762;BME280;53672;48.176;16.338;2024-02-21T16:37:50;99442.38;;;10.29;45.79
66762;BME280;53672;48.176;16.338;2024-02-21T16:42:52;99446.88;;;10.22;45.56
66762;BME280;53672;48.176;16.338;2024-02-21T16:47:55;99441.19;;;10.23;45.25
66762;BME280;53672;48.176;16.338;2024-02-21T16:52:57;99448.19;;;10.11;46.15
66762;BME280;53672;48.176;16.338;2024-02-21T16:57:58;99440.78;;;9.97;46.49
66762;BME280;53672;48.176;16.338;2024-02-21T17:03:02;99448.69;;;9.92;46.53
66762;BME280;53672;48.176;16.338;2024-02-21T17:08:04;99447.63;;;9.71;47.80
66762;BME280;53672;48.176;16.338;2024-02-21T17:13:07;99438.63;;;9.62;47.74
66762;BME280;53672;48.176;16.338;2024-02-21T17:18:10;99438.97;;;9.59;47.83
66762;BME280;53672;48.176;16.338;2024-02-21T17:23:12;99431.03;;;9.49;48.39
66762;BME280;53672;48.176;16.338;2024-02-21T17:28:14;99424.28;;;9.29;49.91
66762;BME280;53672;48.176;16.338;2024-02-21T17:33:17;99420.44;;;9.08;50.69
66762;BME280;53672;48.176;16.338;2024-02-21T17:38:18;99414.63;;;9.03;51.14
66762;BME280;53672;48.176;16.338;2024-02-21T17:43:21;99403.56;;;8.88;51.39
66762;BME280;53672;48.176;16.338;2024-02-21T17:48:24;99399.56;;;8.76;52.49
66762;BME280;53672;48.176;16.338;2024-02-21T17:53:27;99396.81;;;8.68;52.61
66762;BME280;53672;48.176;16.338;2024-02-21T17:58:28;99390.06;;;8.48;52.74
66762;BME280;53672;48.176;16.338;2024-02-21T18:03:31;99383.63;;;8.33;53.91
66762;BME280;53672;48.176;16.338;2024-02-21T18:08:33;99368.56;;;8.37;54.24
66762;BME280;53672;48.176;16.338;2024-02-21T18:13:35;99358.84;;;8.26;54.35
66762;BME280;53672;48.176;16.338;2024-02-21T18:18:37;99365.69;;;8.22;53.66
66762;BME280;53672;48.176;16.338;2024-02-21T18:23:39;99356.47;;;8.15;54.49
66762;BME280;53672;48.176;16.338;2024-02-21T18:28:41;99339.97;;;8.00;54.67
66762;BME280;53672;48.176;16.338;2024-02-21T18:33:45;99322.53;;;7.85;54.83
66762;BME280;53672;48.176;16.338;2024-02-21T18:38:46;99321.16;;;7.97;54.52
66762;BME280;53672;48.176;16.338;2024-02-21T18:43:48;99312.28;;;7.87;54.47
66762;BME280;53672;48.176;16.338;2024-02-21T18:48:51;99302.56;;;7.93;54.32
66762;BME280;53672;48.176;16.338;2024-02-21T18:53:54;99299.69;;;7.86;54.07
66762;BME280;53672;48.176;16.338;2024-02-21T18:58:57;99306.16;;;7.93;53.82
66762;BME280;53672;48.176;16.338;2024-02-21T19:04:00;99305.47;;;7.83;53.90
66762;BME280;53672;48.176;16.338;2024-02-21T19:09:02;99297.31;;;7.75;54.46
66762;BME280;53672;48.176;16.338;2024-02-21T19:14:05;99297.84;;;7.71;54.20
66762;BME280;53672;48.176;16.338;2024-02-21T19:19:08;99288.63;;;7.56;55.32
66762;BME280;53672;48.176;16.338;2024-02-21T19:24:10;99274.63;;;7.50;55.17
66762;BME280;53672;48.176;16.338;2024-02-21T19:29:12;99276.53;;;7.50;54.70
66762;BME280;53672;48.176;16.338;2024-02-21T19:34:16;99271.88;;;7.50;55.26
66762;BME280;53672;48.176;16.338;2024-02-21T19:39:19;99271.06;;;7.50;57.08
66762;BME280;53672;48.176;16.338;2024-02-21T19:44:22;99262.53;;;7.45;56.54
66762;BME280;53672;48.176;16.338;2024-02-21T19:49:25;99265.59;;;7.34;58.50
66762;BME280;53672;48.176;16.338;2024-02-21T19:54:26;99266.94;;;7.06;58.88
66762;BME280;53672;48.176;16.338;2024-02-21T19:59:28;99252.56;;;6.79;60.07
66762;BME280;53672;48.176;16.338;2024-02-21T20:04:32;99250.00;;;6.62;61.42
66762;BME280;53672;48.176;16.338;2024-02-21T20:09:34;99250.66;;;6.48;62.22
66762;BME280;53672;48.176;16.338;2024-02-21T20:14:37;99238.84;;;6.31;63.03
66762;BME280;53672;48.176;16.338;2024-02-21T20:19:41;99228.94;;;6.22;62.91
66762;BME280;53672;48.176;16.338;2024-02-21T20:24:43;99222.03;;;6.02;63.96
66762;BME280;53672;48.176;16.338;2024-02-21T20:29:45;99215.91;;;5.92;65.02
66762;BME280;53672;48.176;16.338;2024-02-21T20:34:48;99211.78;;;5.88;64.55
66762;BME280;53672;48.176;16.338;2024-02-21T20:39:50;99205.44;;;5.79;65.64
66762;BME280;53672;48.176;16.338;2024-02-21T20:44:51;99207.16;;;5.80;64.28
66762;BME280;53672;48.176;16.338;2024-02-21T20:49:55;99192.72;;;5.88;61.29
66762;BME280;53672;48.176;16.338;2024-02-21T20:54:58;99187.72;;;6.25;59.35
66762;BME280;53672;48.176;16.338;2024-02-21T21:00:00;99171.06;;;6.28;58.33
66762;BME280;53672;48.176;16.338;2024-02-21T21:05:03;99167.66;;;6.42;58.56
66762;BME280;53672;48.176;16.338;2024-02-21T21:10:06;99170.41;;;6.42;58.00
66762;BME280;53672;48.176;16.338;2024-02-21T21:15:09;99158.97;;;6.31;58.73
66762;BME280;53672;48.176;16.338;2024-02-21T21:20:15;99142.06;;;6.27;58.62
66762;BME280;53672;48.176;16.338;2024-02-21T21:25:17;99134.59;;;6.21;58.52
66762;BME280;53672;48.176;16.338;2024-02-21T21:30:19;99110.38;;;6.18;58.81
66762;BME280;53672;48.176;16.338;2024-02-21T21:35:23;99109.53;;;6.09;58.99
66762;BME280;53672;48.176;16.338;2024-02-21T21:40:26;99090.25;;;5.87;60.14
66762;BME280;53672;48.176;16.338;2024-02-21T21:45:29;99086.44;;;5.72;60.70
66762;BME280;53672;48.176;16.338;2024-02-21T21:50:32;99078.59;;;5.61;61.07
66762;BME280;53672;48.176;16.338;2024-02-21T21:55:35;99074.50;;;5.57;61.59
66762;BME280;53672;48.176;16.338;2024-02-21T22:00:38;99070.56;;;5.51;61.39
66762;BME280;53672;48.176;16.338;2024-02-21T22:05:41;99062.88;;;5.38;62.55
66762;BME280;53672;48.176;16.338;2024-02-21T22:10:43;99066.56;;;5.29;62.68
66762;BME280;53672;48.176;16.338;2024-02-21T22:15:44;99062.00;;;5.30;62.61
66762;BME280;53672;48.176;16.338;2024-02-21T22:20:49;99050.56;;;5.26;62.92
66762;BME280;53672;48.176;16.338;2024-02-21T22:25:50;99044.75;;;5.13;62.98
66762;BME280;53672;48.176;16.338;2024-02-21T22:30:52;99042.31;;;5.02;63.71
66762;BME280;53672;48.176;16.338;2024-02-21T22:35:55;99030.78;;;5.08;64.33
66762;BME280;53672;48.176;16.338;2024-02-21T22:40:56;99026.81;;;5.03;63.58
66762;BME280;53672;48.176;16.338;2024-02-21T22:45:58;99021.06;;;5.06;63.60
66762;BME280;53672;48.176;16.338;2024-02-21T22:51:01;99010.19;;;5.06;63.83
66762;BME280;53672;48.176;16.338;2024-02-21T22:56:03;99001.34;;;5.04;63.94
66762;BME280;53672;48.176;16.338;2024-02-21T23:01:09;99006.84;;;5.12;63.92
66762;BME280;53672;48.176;16.338;2024-02-21T23:06:12;98995.66;;;5.23;63.56
66762;BME280;53672;48.176;16.338;2024-02-21T23:11:14;98978.78;;;5.19;64.42
66762;BME280;53672;48.176;16.338;2024-02-21T23:16:16;98964.19;;;5.20;64.47
66762;BME280;53672;48.176;16.338;2024-02-21T23:21:18;98963.19;;;5.29;63.34
66762;BME280;53672;48.176;16.338;2024-02-21T23:26:26;98953.16;;;5.30;63.55
66762;BME280;53672;48.176;16.338;2024-02-21T23:31:28;98934.28;;;5.45;63.85
66762;BME280;53672;48.176;16.338;2024-02-21T23:36:31;98915.59;;;5.50;63.42
66762;BME280;53672;48.176;16.338;2024-02-21T23:41:32;98907.25;;;5.67;62.56
66762;BME280;53672;48.176;16.338;2024-02-21T23:46:34;98908.09;;;5.68;62.82
66762;BME280;53672;48.176;16.338;2024-02-21T23:51:37;98906.59;;;5.73;61.76
66762;BME280;53672;48.176;16.338;2024-02-21T23:56:41;98894.66;;;5.82;61.38
